Time;durP1;ratioP1;P1;durP2;ratioP2;P2;SDS_P1;SDS_P2;PMS_P1;PMS_P2;Temp;Humidity;BMP_temperature;BMP_pressure;BME280_temperature;BME280_humidity;BME280_pressure;Samples;Min_cycle;Max_cycle;Signal;HPM_P1;HPM_P2
2023/04/05 00:00:53;;;;;;;5.93;2.33;;;4.80;99.90;;;;;;5024913;28;20067;-72
2023/04/05 00:03:19;;;;;;;9.57;2.60;;;4.80;99.90;;;;;;5023659;28;20375;-72
2023/04/05 00:05:45;;;;;;;7.72;2.92;;;4.70;99.90;;;;;;5025206;28;20040;-73
2023/04/05 00:08:22;;;;;;;7.45;3.03;;;4.70;99.90;;;;;;5022320;28;20025;-73
2023/04/05 00:10:49;;;;;;;9.25;2.63;;;4.70;99.90;;;;;;5021621;28;20035;-72
2023/04/05 00:13:14;;;;;;;5.75;2.08;;;4.60;99.90;;;;;;5022830;28;20406;-74
2023/04/05 00:15:40;;;;;;;9.00;3.38;;;4.70;99.90;;;;;;5025054;28;20024;-72
2023/04/05 00:18:06;;;;;;;5.68;2.17;;;4.70;99.90;;;;;;5023524;28;20095;-72
2023/04/05 00:20:32;;;;;;;4.97;2.40;;;4.60;99.90;;;;;;5022688;28;20140;-73
2023/04/05 00:23:05;;;;;;;10.85;2.70;;;4.70;99.90;;;;;;5024010;28;20037;-72
2023/04/05 00:25:31;;;;;;;5.15;2.40;;;4.70;99.90;;;;;;5023652;28;20048;-73
2023/04/05 00:27:56;;;;;;;7.10;2.50;;;4.60;99.90;;;;;;5023200;28;20041;-72
2023/04/05 00:30:22;;;;;;;7.32;2.55;;;4.60;99.90;;;;;;5023506;28;20128;-72
2023/04/05 00:32:48;;;;;;;6.90;3.08;;;4.60;99.90;;;;;;5024404;28;20517;-72
2023/04/05 00:35:15;;;;;;;12.57;3.03;;;4.60;99.90;;;;;;5022156;28;20038;-72
2023/04/05 00:37:40;;;;;;;6.05;2.42;;;4.50;99.90;;;;;;5021944;28;20115;-73
2023/04/05 00:40:06;;;;;;;6.88;3.00;;;4.50;99.90;;;;;;5022219;28;20485;-72
2023/04/05 00:42:32;;;;;;;16.05;3.35;;;4.50;99.90;;;;;;5023935;28;20040;-72
2023/04/05 00:44:57;;;;;;;5.35;2.63;;;4.40;99.90;;;;;;5022833;28;20037;-73
2023/04/05 00:47:23;;;;;;;9.00;3.15;;;4.30;99.90;;;;;;5023545;28;20053;-71
2023/04/05 00:49:49;;;;;;;8.38;3.25;;;4.30;99.90;;;;;;5025310;28;20034;-72
2023/04/05 00:52:16;;;;;;;5.97;2.10;;;4.20;99.90;;;;;;5023058;28;20082;-73
2023/04/05 00:54:43;;;;;;;6.60;2.75;;;4.20;99.90;;;;;;5022460;28;20049;-71
2023/04/05 00:57:09;;;;;;;6.03;2.65;;;4.20;99.90;;;;;;5024109;28;20860;-74
2023/04/05 00:59:35;;;;;;;13.70;4.05;;;4.10;99.90;;;;;;5023300;28;20034;-73
2023/04/05 01:02:16;;;;;;;6.00;2.47;;;4.10;99.90;;;;;;5024021;28;20026;-72
2023/04/05 01:04:48;;;;;;;5.40;2.55;;;4.20;99.90;;;;;;5023121;28;20038;-72
2023/04/05 01:07:45;;;;;;;4.45;2.50;;;4.10;99.90;;;;;;5021992;28;20045;-73
2023/04/05 01:10:13;;;;;;;19.85;2.95;;;4.10;99.90;;;;;;5018339;28;20112;-72
2023/04/05 01:12:40;;;;;;;7.85;2.50;;;4.00;99.90;;;;;;5020888;28;20075;-73
2023/04/05 01:15:06;;;;;;;5.68;2.97;;;4.00;99.90;;;;;;5019109;28;20037;-72
2023/04/05 01:17:37;;;;;;;8.00;3.33;;;3.90;99.90;;;;;;5021968;28;20053;-72
2023/04/05 01:20:09;;;;;;;7.30;3.00;;;3.90;99.90;;;;;;5024014;28;20029;-72
2023/04/05 01:23:04;;;;;;;9.15;2.97;;;3.80;99.90;;;;;;5021733;28;20042;-73
2023/04/05 01:25:51;;;;;;;9.05;3.50;;;3.80;99.90;;;;;;5020952;28;20030;-72
2023/04/05 01:28:47;;;;;;;5.13;2.38;;;3.80;99.90;;;;;;5023344;28;20045;-71
2023/04/05 01:31:32;;;;;;;5.70;2.40;;;3.70;99.90;;;;;;5019303;28;20056;-73
2023/04/05 01:34:30;;;;;;;7.63;2.85;;;3.70;99.90;;;;;;5022085;28;20072;-73
2023/04/05 01:37:00;;;;;;;7.18;2.78;;;3.70;99.90;;;;;;5023055;28;20033;-74
2023/04/05 01:39:27;;;;;;;;;;;3.60;99.90;;;;;;5026446;28;20042;-72
2023/04/05 01:41:58;;;;;;;7.40;2.47;;;3.70;99.90;;;;;;5027386;28;19917;-72
2023/04/05 01:44:23;;;;;;;5.65;1.98;;;3.70;99.90;;;;;;5025987;28;20662;-73
2023/04/05 01:46:49;;;;;;;9.07;2.50;;;3.60;99.90;;;;;;5033309;28;20040;-72
2023/04/05 01:49:14;;;;;;;7.22;2.95;;;3.60;99.90;;;;;;5027026;28;20779;-74
2023/04/05 01:51:40;;;;;;;7.25;2.50;;;3.60;99.90;;;;;;5024867;28;20044;-73
2023/04/05 01:54:07;;;;;;;5.30;2.42;;;3.50;99.90;;;;;;5026487;28;20041;-72
2023/04/05 01:56:32;;;;;;;12.70;2.83;;;3.50;99.90;;;;;;5026099;28;20037;-72
2023/04/05 01:58:58;;;;;;;4.80;1.92;;;3.40;99.90;;;;;;5027368;28;20116;-71
2023/04/05 02:01:23;;;;;;;9.85;3.17;;;3.40;99.90;;;;;;5026304;28;20070;-72
2023/04/05 02:03:49;;;;;;;4.53;2.10;;;3.40;99.90;;;;;;5027087;28;20041;-71
2023/04/05 02:06:15;;;;;;;5.97;2.20;;;3.30;99.90;;;;;;5026631;28;20581;-73
2023/04/05 02:08:40;;;;;;;7.07;2.40;;;3.20;99.90;;;;;;5026279;28;20144;-74
2023/04/05 02:11:06;;;;;;;8.00;2.33;;;3.20;99.90;;;;;;5025133;28;20618;-72
2023/04/05 02:13:31;;;;;;;6.22;2.33;;;3.10;99.90;;;;;;5024537;28;20896;-73
2023/04/05 02:15:57;;;;;;;5.40;2.22;;;3.10;99.90;;;;;;5027274;28;20120;-71
2023/04/05 02:18:28;;;;;;;6.57;2.60;;;3.00;99.90;;;;;;5026468;28;20821;-72
2023/04/05 02:21:01;;;;;;;8.93;3.05;;;3.00;99.90;;;;;;5025388;28;20045;-72
2023/04/05 02:23:29;;;;;;;6.80;2.45;;;3.10;99.90;;;;;;5025568;28;20521;-72
2023/04/05 02:25:55;;;;;;;8.95;2.80;;;3.10;99.90;;;;;;5025498;28;20548;-72
2023/04/05 02:28:26;;;;;;;6.22;3.10;;;3.20;99.90;;;;;;5026163;28;20375;-72
2023/04/05 02:30:52;;;;;;;8.32;2.40;;;3.10;99.90;;;;;;5025268;28;20057;-72
2023/04/05 02:33:18;;;;;;;10.43;2.85;;;3.20;99.90;;;;;;5025676;28;20494;-71
2023/04/05 02:35:44;;;;;;;4.25;2.25;;;3.20;99.90;;;;;;5025644;28;20481;-73
2023/04/05 02:38:09;;;;;;;8.70;3.05;;;3.20;99.90;;;;;;5023707;28;20116;-71
2023/04/05 02:40:35;;;;;;;6.38;2.72;;;3.30;99.90;;;;;;5026222;28;20121;-73
2023/04/05 02:43:01;;;;;;;4.80;2.80;;;3.30;99.90;;;;;;5025526;28;20105;-72
2023/04/05 02:45:27;;;;;;;5.75;2.10;;;3.20;99.90;;;;;;5025276;28;20128;-73
2023/04/05 02:47:53;;;;;;;7.20;2.60;;;3.30;99.90;;;;;;5025190;28;20091;-72
2023/04/05 02:50:19;;;;;;;6.75;3.45;;;3.30;99.90;;;;;;5023908;28;20049;-72
2023/04/05 02:52:46;;;;;;;5.95;2.70;;;3.30;99.90;;;;;;5024462;28;20038;-74
2023/04/05 02:55:12;;;;;;;10.20;2.90;;;3.40;99.90;;;;;;5024121;28;20411;-72
2023/04/05 02:57:38;;;;;;;11.90;2.42;;;3.40;99.90;;;;;;5026815;28;20025;-72
2023/04/05 03:00:05;;;;;;;4.43;2.05;;;3.40;99.90;;;;;;5026122;28;20029;-73
2023/04/05 03:02:31;;;;;;;7.90;3.15;;;3.40;99.90;;;;;;5023957;28;20117;-75
2023/04/05 03:04:56;;;;;;;5.03;2.17;;;3.40;99.90;;;;;;5026249;28;20148;-73
2023/04/05 03:07:24;;;;;;;8.75;2.20;;;3.40;99.90;;;;;;5025326;28;20037;-73
2023/04/05 03:09:50;;;;;;;8.35;3.60;;;3.50;99.90;;;;;;5024702;28;20033;-73
2023/04/05 03:12:15;;;;;;;8.63;3.50;;;3.40;99.90;;;;;;5024871;28;20037;-74
2023/04/05 03:14:41;;;;;;;5.22;2.13;;;3.40;99.90;;;;;;5024502;28;20037;-73
2023/04/05 03:17:07;;;;;;;6.53;2.20;;;3.30;99.90;;;;;;5024343;28;20038;-72
2023/04/05 03:19:34;;;;;;;7.25;2.10;;;3.30;99.90;;;;;;5023927;28;20049;-72
2023/04/05 03:22:00;;;;;;;11.38;3.30;;;3.30;99.90;;;;;;5025694;28;20760;-71
2023/04/05 03:24:25;;;;;;;6.70;2.88;;;3.30;99.90;;;;;;5024536;28;20068;-72
2023/04/05 03:26:51;;;;;;;6.85;2.03;;;3.30;99.90;;;;;;5025111;28;20037;-74
2023/04/05 03:29:17;;;;;;;10.57;3.70;;;3.20;99.90;;;;;;5023834;28;20041;-72
2023/04/05 03:31:44;;;;;;;5.72;2.33;;;3.20;99.90;;;;;;5025300;28;20039;-74
2023/04/05 03:34:09;;;;;;;7.40;2.65;;;3.30;99.90;;;;;;5024526;28;20120;-73
2023/04/05 03:36:41;;;;;;;6.75;2.47;;;3.20;99.90;;;;;;5024614;28;20116;-72
2023/04/05 03:39:11;;;;;;;6.65;2.65;;;3.20;99.90;;;;;;5022980;28;20029;-72
2023/04/05 03:41:37;;;;;;;5.97;2.30;;;3.10;99.90;;;;;;5023340;28;20044;-73
2023/04/05 03:44:03;;;;;;;4.75;2.15;;;3.10;99.90;;;;;;5025387;28;20087;-72
2023/04/05 03:46:29;;;;;;;6.90;2.53;;;3.10;99.90;;;;;;5031684;28;20048;-72
2023/04/05 03:48:55;;;;;;;6.10;2.67;;;3.00;99.90;;;;;;5027941;28;20059;-71
2023/04/05 03:51:21;;;;;;;8.70;3.28;;;3.00;99.90;;;;;;5022628;28;20033;-72
2023/04/05 03:53:47;;;;;;;5.72;2.47;;;3.00;99.90;;;;;;5023549;28;20030;-74
2023/04/05 03:56:12;;;;;;;9.35;2.85;;;3.00;99.90;;;;;;5023838;28;20675;-72
2023/04/05 03:58:38;;;;;;;6.78;2.95;;;3.00;99.90;;;;;;5024650;28;20379;-71
2023/04/05 04:01:03;;;;;;;8.38;3.22;;;2.90;99.90;;;;;;5025428;28;20088;-73
2023/04/05 04:03:29;;;;;;;7.25;3.17;;;2.90;99.90;;;;;;5022641;28;20402;-72
2023/04/05 04:05:56;;;;;;;9.65;2.80;;;2.90;99.90;;;;;;5021436;28;20045;-73
2023/04/05 04:08:21;;;;;;;8.82;2.85;;;2.90;99.90;;;;;;5022755;28;20040;-72
2023/04/05 04:10:48;;;;;;;6.40;2.47;;;2.90;99.90;;;;;;5025046;28;20112;-72
2023/04/05 04:13:13;;;;;;;5.68;2.58;;;2.90;99.90;;;;;;5023776;28;20441;-73
2023/04/05 04:15:39;;;;;;;6.03;2.45;;;2.80;99.90;;;;;;5025149;28;20458;-72
2023/04/05 04:18:05;;;;;;;7.13;2.88;;;2.80;99.90;;;;;;5024227;28;20029;-73
2023/04/05 04:20:30;;;;;;;7.88;2.65;;;2.70;99.90;;;;;;5022722;28;20032;-72
2023/04/05 04:22:57;;;;;;;8.13;2.83;;;2.70;99.90;;;;;;5025100;28;20508;-71
2023/04/05 04:25:25;;;;;;;7.55;3.20;;;2.70;99.90;;;;;;5023773;28;20406;-72
2023/04/05 04:27:51;;;;;;;9.93;3.05;;;2.70;99.90;;;;;;5025630;28;21018;-72
2023/04/05 04:30:21;;;;;;;5.90;2.20;;;2.70;99.90;;;;;;5021690;28;20143;-73
2023/04/05 04:32:50;;;;;;;6.20;2.92;;;2.60;99.90;;;;;;5024678;28;20397;-72
2023/04/05 04:35:23;;;;;;;7.45;3.33;;;2.60;99.90;;;;;;5022915;28;20041;-72
2023/04/05 04:38:09;;;;;;;6.55;2.67;;;2.50;99.90;;;;;;5023327;28;20560;-73
2023/04/05 04:40:40;;;;;;;5.03;2.28;;;2.40;99.90;;;;;;5021853;28;20128;-73
2023/04/05 04:43:17;;;;;;;6.40;3.33;;;2.40;99.90;;;;;;5023005;28;20889;-72
2023/04/05 04:45:46;;;;;;;6.40;2.33;;;2.30;99.90;;;;;;5022852;28;20148;-72
2023/04/05 04:48:15;;;;;;;8.20;2.78;;;2.30;99.90;;;;;;5023528;28;20037;-74
2023/04/05 04:50:48;;;;;;;8.48;2.58;;;2.20;99.90;;;;;;5026190;28;20071;-71
2023/04/05 04:53:16;;;;;;;5.60;2.50;;;2.20;99.90;;;;;;5023348;28;20035;-72
2023/04/05 04:55:41;;;;;;;7.65;3.00;;;2.20;99.90;;;;;;5024991;28;20034;-72
2023/04/05 04:58:09;;;;;;;5.95;2.50;;;2.20;99.90;;;;;;5022767;28;20091;-72
2023/04/05 05:00:37;;;;;;;6.30;3.30;;;2.30;99.90;;;;;;5023402;28;20037;-73
2023/04/05 05:03:03;;;;;;;8.05;2.85;;;2.30;99.90;;;;;;5022122;28;20056;-73
2023/04/05 05:05:29;;;;;;;8.85;2.88;;;2.30;99.90;;;;;;5022331;28;20038;-71
2023/04/05 05:07:54;;;;;;;9.18;3.05;;;2.30;99.90;;;;;;5024083;28;20420;-72
2023/04/05 05:10:20;;;;;;;6.55;2.72;;;2.30;99.90;;;;;;5023610;28;20037;-73
2023/04/05 05:12:47;;;;;;;6.32;2.95;;;2.30;99.90;;;;;;5028371;28;20629;-72
2023/04/05 05:15:13;;;;;;;9.70;3.08;;;2.20;99.90;;;;;;5027225;28;20030;-73
2023/04/05 05:17:39;;;;;;;7.05;3.25;;;2.20;99.90;;;;;;5028382;28;20029;-71
2023/04/05 05:20:09;;;;;;;10.18;3.47;;;2.10;99.90;;;;;;5028196;28;20493;-74
2023/04/05 05:22:36;;;;;;;10.20;3.33;;;2.10;99.90;;;;;;5028312;28;20036;-73
2023/04/05 05:25:04;;;;;;;8.25;2.50;;;2.10;99.90;;;;;;5026089;28;20022;-72
2023/04/05 05:27:29;;;;;;;6.68;2.78;;;2.10;99.90;;;;;;5026159;28;20773;-73
2023/04/05 05:29:55;;;;;;;13.18;3.30;;;2.20;99.90;;;;;;5026325;28;20057;-72
2023/04/05 05:32:22;;;;;;;7.43;3.50;;;2.20;99.90;;;;;;5028833;28;20144;-74
2023/04/05 05:34:47;;;;;;;9.77;3.55;;;2.20;99.90;;;;;;5026870;28;20033;-72
2023/04/05 05:37:13;;;;;;;11.10;2.67;;;2.30;99.90;;;;;;5025877;28;20107;-72
2023/04/05 05:39:39;;;;;;;10.80;3.15;;;2.30;99.90;;;;;;5026728;28;20026;-73
2023/04/05 05:42:07;;;;;;;11.10;3.95;;;2.40;99.90;;;;;;5027089;28;20493;-72
2023/04/05 05:44:36;;;;;;;13.07;3.70;;;2.60;99.90;;;;;;5026011;28;20115;-73
2023/04/05 05:47:02;;;;;;;8.20;3.28;;;2.70;99.90;;;;;;5024220;28;20060;-73
2023/04/05 05:49:28;;;;;;;10.85;2.78;;;2.90;99.90;;;;;;5028885;28;20030;-71
2023/04/05 05:51:53;;;;;;;7.65;2.72;;;3.10;99.90;;;;;;5025702;28;20033;-72
2023/04/05 05:54:19;;;;;;;7.32;2.78;;;3.40;99.90;;;;;;5023308;28;20159;-72
2023/04/05 05:56:48;;;;;;;8.13;3.17;;;3.80;99.90;;;;;;5024897;28;20037;-72
2023/04/05 05:59:14;;;;;;;6.25;3.00;;;4.30;99.90;;;;;;5025478;28;20038;-72
2023/04/05 06:01:45;;;;;;;10.52;2.67;;;4.60;99.90;;;;;;5026075;28;20030;-72
2023/04/05 06:04:11;;;;;;;;;;;5.00;99.90;;;;;;5024236;28;20045;-72
2023/04/05 06:06:37;;;;;;;6.30;3.30;;;5.40;99.90;;;;;;5026190;28;19921;-72
2023/04/05 06:09:02;;;;;;;6.05;2.50;;;6.00;99.90;;;;;;5024660;28;20037;-72
2023/04/05 06:11:28;;;;;;;8.68;3.78;;;6.80;99.90;;;;;;5023232;28;20033;-72
2023/04/05 06:13:54;;;;;;;6.30;2.88;;;7.80;99.90;;;;;;5024065;28;20075;-72
2023/04/05 06:16:20;;;;;;;6.50;2.35;;;8.50;99.90;;;;;;5024834;28;20036;-73
2023/04/05 06:18:46;;;;;;;8.35;2.33;;;9.20;99.90;;;;;;5025958;28;20084;-72
2023/04/05 06:21:12;;;;;;;6.25;2.67;;;10.00;99.30;;;;;;5023479;28;20132;-72
2023/04/05 06:23:40;;;;;;;7.25;2.13;;;10.20;98.10;;;;;;5025105;28;20038;-72
2023/04/05 06:26:14;;;;;;;5.80;2.13;;;9.80;96.70;;;;;;5025792;28;20102;-73
2023/04/05 06:28:40;;;;;;;4.82;1.85;;;9.10;97.30;;;;;;5026610;28;20033;-75
2023/04/05 06:31:05;;;;;;;6.25;2.40;;;9.20;98.30;;;;;;5024221;28;20573;-72
2023/04/05 06:33:31;;;;;;;8.38;2.40;;;9.90;98.00;;;;;;5025119;28;20440;-72
2023/04/05 06:35:56;;;;;;;4.70;2.17;;;10.70;97.70;;;;;;5024568;28;20104;-73
2023/04/05 06:38:22;;;;;;;10.23;2.38;;;11.30;95.00;;;;;;5025344;28;20056;-72
2023/04/05 06:40:47;;;;;;;5.68;2.20;;;11.70;94.70;;;;;;5024391;28;20573;-71
2023/04/05 06:43:13;;;;;;;7.45;2.08;;;12.10;94.00;;;;;;5024460;28;20025;-72
2023/04/05 06:45:39;;;;;;;6.95;2.30;;;12.40;93.10;;;;;;5026635;28;20045;-72
2023/04/05 06:48:05;;;;;;;7.38;2.08;;;12.50;93.10;;;;;;5025742;28;20038;-72
2023/04/05 06:50:30;;;;;;;4.53;2.00;;;12.60;92.00;;;;;;5022660;28;20030;-73
2023/04/05 06:52:56;;;;;;;5.70;1.88;;;12.40;91.90;;;;;;5017525;28;20032;-73
2023/04/05 06:55:21;;;;;;;8.80;2.50;;;11.80;91.60;;;;;;5023582;28;20116;-72
2023/04/05 06:57:47;;;;;;;6.30;2.42;;;11.30;92.20;;;;;;5022022;28;20528;-71
2023/04/05 07:00:16;;;;;;;4.05;1.92;;;10.60;93.00;;;;;;5023719;28;20875;-72
2023/04/05 07:02:41;;;;;;;5.68;2.05;;;10.20;93.70;;;;;;5022480;28;20040;-71
2023/04/05 07:05:07;;;;;;;8.30;2.20;;;9.80;94.10;;;;;;5023948;28;20034;-72
2023/04/05 07:07:37;;;;;;;8.73;3.17;;;9.50;94.30;;;;;;5020244;28;20490;-73
2023/04/05 07:10:04;;;;;;;4.35;2.00;;;9.30;94.50;;;;;;5022047;28;20083;-72
2023/04/05 07:12:30;;;;;;;7.32;2.60;;;9.10;95.60;;;;;;5019241;28;20026;-72
2023/04/05 07:14:57;;;;;;;8.45;2.78;;;9.00;95.70;;;;;;5023661;28;20072;-73
2023/04/05 07:17:23;;;;;;;12.70;2.97;;;8.90;96.30;;;;;;5021896;28;20108;-73
2023/04/05 07:19:48;;;;;;;10.32;2.83;;;8.80;96.30;;;;;;5023744;28;20033;-73
2023/04/05 07:22:14;;;;;;;6.75;2.38;;;8.70;96.20;;;;;;5024704;28;20146;-72
2023/04/05 07:24:40;;;;;;;4.85;2.83;;;8.60;95.90;;;;;;5021172;28;20044;-72
2023/04/05 07:27:05;;;;;;;5.22;2.45;;;8.70;96.00;;;;;;5022512;28;20053;-73
2023/04/05 07:29:31;;;;;;;6.47;2.42;;;8.70;95.10;;;;;;5022985;28;20087;-73
2023/04/05 07:31:56;;;;;;;8.93;2.40;;;8.70;96.30;;;;;;5020499;28;20112;-72
2023/04/05 07:34:22;;;;;;;12.77;3.05;;;8.70;96.80;;;;;;5019662;28;20042;-72
2023/04/05 07:36:49;;;;;;;6.78;2.45;;;8.90;96.10;;;;;;5022324;28;20390;-72
2023/04/05 07:39:14;;;;;;;5.93;2.45;;;8.90;96.30;;;;;;5020361;28;20056;-73
2023/04/05 07:41:40;;;;;;;6.90;2.50;;;9.00;96.40;;;;;;5022536;28;20029;-72
2023/04/05 07:44:06;;;;;;;4.45;2.60;;;9.10;96.60;;;;;;5021496;28;20053;-73
2023/04/05 07:46:31;;;;;;;8.95;3.03;;;9.10;95.40;;;;;;5023127;28;20090;-72
2023/04/05 07:48:57;;;;;;;11.50;3.20;;;9.10;95.90;;;;;;5020915;28;20029;-73
2023/04/05 07:51:23;;;;;;;10.40;2.45;;;9.20;96.40;;;;;;5022734;28;20595;-73
2023/04/05 07:53:49;;;;;;;15.30;2.50;;;9.20;96.00;;;;;;5021337;28;20482;-72
2023/04/05 07:56:15;;;;;;;7.80;2.58;;;9.20;95.30;;;;;;5022215;28;20041;-74
2023/04/05 07:58:40;;;;;;;8.88;2.47;;;9.30;95.80;;;;;;5020769;28;20073;-72
2023/04/05 08:01:08;;;;;;;7.90;2.60;;;9.50;95.30;;;;;;5021215;28;20116;-73
2023/04/05 08:03:35;;;;;;;8.00;2.95;;;9.60;95.70;;;;;;5021612;28;20037;-72
2023/04/05 08:06:14;;;;;;;5.80;2.67;;;9.60;95.90;;;;;;5026210;28;20038;-72
2023/04/05 08:08:40;;;;;;;6.28;2.22;;;9.70;95.20;;;;;;5021943;28;20129;-72
2023/04/05 08:11:06;;;;;;;8.25;2.60;;;9.70;94.80;;;;;;5021818;28;21490;-75
2023/04/05 08:13:32;;;;;;;7.00;2.38;;;9.70;95.40;;;;;;5020097;28;20042;-72
2023/04/05 08:16:00;;;;;;;9.10;2.55;;;9.70;94.80;;;;;;5020311;28;20069;-72
2023/04/05 08:18:25;;;;;;;5.25;2.20;;;9.70;94.50;;;;;;5022378;28;20651;-72
2023/04/05 08:20:53;;;;;;;11.38;2.63;;;9.80;93.90;;;;;;5018229;28;20029;-73
2023/04/05 08:23:19;;;;;;;6.35;2.10;;;9.80;94.30;;;;;;5020458;28;20041;-72
2023/04/05 08:25:44;;;;;;;5.13;2.53;;;10.00;94.40;;;;;;5019676;28;20837;-72
2023/04/05 08:28:10;;;;;;;6.57;2.70;;;10.00;94.40;;;;;;5019302;28;20042;-72
2023/04/05 08:30:36;;;;;;;6.65;2.78;;;10.20;94.00;;;;;;5017544;28;20022;-73
2023/04/05 08:33:01;;;;;;;7.93;2.22;;;10.30;94.40;;;;;;5023317;28;20044;-74
2023/04/05 08:35:27;;;;;;;10.00;2.20;;;10.30;93.60;;;;;;5017077;28;20038;-73
2023/04/05 08:37:52;;;;;;;5.57;1.83;;;10.40;94.10;;;;;;5019533;28;20035;-73
2023/04/05 08:40:18;;;;;;;8.48;2.80;;;10.40;92.40;;;;;;5021498;28;20521;-72
2023/04/05 08:43:02;;;;;;;8.10;2.58;;;10.50;92.80;;;;;;5021667;28;20041;-72
2023/04/05 08:45:28;;;;;;;3.97;1.88;;;10.60;92.00;;;;;;5018277;28;20285;-73
2023/04/05 08:47:53;;;;;;;11.18;1.83;;;10.80;88.80;;;;;;5020606;28;20025;-72
2023/04/05 08:50:19;;;;;;;6.35;1.85;;;10.90;90.00;;;;;;5019575;28;20092;-73
2023/04/05 08:52:48;;;;;;;8.02;1.92;;;10.90;90.60;;;;;;5021739;28;20148;-72
2023/04/05 08:55:16;;;;;;;6.10;1.58;;;11.00;88.30;;;;;;5019536;28;20067;-72
2023/04/05 08:57:46;;;;;;;5.95;1.67;;;10.90;88.50;;;;;;5020864;28;20109;-73
2023/04/05 09:00:13;;;;;;;4.75;2.17;;;11.00;90.20;;;;;;5019778;28;20564;-73
2023/04/05 09:02:39;;;;;;;7.35;2.25;;;11.20;88.10;;;;;;5019649;28;20421;-73
2023/04/05 09:05:08;;;;;;;5.85;2.03;;;11.20;88.30;;;;;;5019008;28;20049;-72
2023/04/05 09:07:35;;;;;;;4.63;1.73;;;11.20;85.60;;;;;;5018459;28;20038;-72
2023/04/05 09:10:01;;;;;;;6.13;2.08;;;11.10;86.90;;;;;;5020497;28;20033;-72
2023/04/05 09:12:28;;;;;;;5.60;1.75;;;11.10;87.80;;;;;;5018514;28;20040;-73
2023/04/05 09:14:54;;;;;;;9.63;2.03;;;11.20;85.60;;;;;;5020890;28;20144;-73
2023/04/05 09:17:21;;;;;;;4.60;1.48;;;11.40;85.30;;;;;;5018297;28;20140;-73
2023/04/05 09:19:50;;;;;;;3.58;1.80;;;11.50;86.00;;;;;;5018540;28;20372;-73
2023/04/05 09:22:17;;;;;;;4.78;1.05;;;11.40;83.80;;;;;;5014553;28;20044;-72
2023/04/05 09:24:45;;;;;;;3.63;1.55;;;11.50;85.40;;;;;;5020673;28;20033;-71
2023/04/05 09:27:16;;;;;;;5.50;1.70;;;11.50;82.00;;;;;;5018938;28;20068;-74
2023/04/05 09:29:46;;;;;;;5.32;1.30;;;11.50;82.50;;;;;;5017413;28;20042;-73
2023/04/05 09:32:13;;;;;;;3.00;1.42;;;11.50;85.90;;;;;;5021316;28;20506;-73
2023/04/05 09:34:40;;;;;;;6.82;1.88;;;11.70;82.40;;;;;;5020605;28;20068;-72
2023/04/05 09:37:14;;;;;;;7.35;1.85;;;11.70;81.50;;;;;;5017659;28;20052;-72
2023/04/05 09:39:40;;;;;;;6.57;1.40;;;11.80;81.20;;;;;;5015546;28;20042;-73
2023/04/05 09:42:08;;;;;;;3.85;1.60;;;11.90;80.10;;;;;;5017459;28;20068;-72
2023/04/05 09:44:56;;;;;;;9.18;1.70;;;11.90;82.50;;;;;;5020485;28;20038;-73
2023/04/05 09:47:31;;;;;;;3.70;1.48;;;11.90;84.30;;;;;;5017131;28;20132;-73
2023/04/05 09:50:03;;;;;;;5.70;2.15;;;12.00;82.80;;;;;;5018803;28;20037;-73
2023/04/05 09:52:34;;;;;;;4.35;1.98;;;12.00;83.00;;;;;;5016854;28;20053;-73
2023/04/05 09:55:02;;;;;;;4.25;1.80;;;12.00;81.70;;;;;;5003801;28;20069;-72
2023/04/05 09:57:31;;;;;;;7.07;1.73;;;12.00;82.50;;;;;;5017169;28;20087;-72
2023/04/05 09:59:57;;;;;;;4.93;2.00;;;12.00;84.80;;;;;;5020910;28;20134;-73
2023/04/05 10:02:23;;;;;;;4.93;1.77;;;12.10;83.90;;;;;;5018550;28;20590;-72
2023/04/05 10:04:49;;;;;;;6.63;2.08;;;12.20;82.70;;;;;;5018823;28;20033;-73
2023/04/05 10:07:16;;;;;;;5.10;1.90;;;12.20;81.20;;;;;;5019395;28;20830;-72
2023/04/05 10:09:47;;;;;;;7.07;1.90;;;12.40;82.10;;;;;;5016709;28;20029;-72
2023/04/05 10:12:26;;;;;;;3.78;1.33;;;12.40;81.70;;;;;;5015978;28;20050;-72
2023/04/05 10:14:52;;;;;;;3.45;1.52;;;12.40;80.40;;;;;;5018338;28;20043;-72
2023/04/05 10:17:33;;;;;;;15.20;1.77;;;12.30;80.20;;;;;;5018598;28;20786;-72
2023/04/05 10:20:15;;;;;;;3.10;1.30;;;12.40;82.00;;;;;;5017715;28;20038;-71
2023/04/05 10:22:50;;;;;;;3.13;1.50;;;12.30;80.80;;;;;;5019126;28;20037;-73
2023/04/05 10:25:42;;;;;;;6.68;2.10;;;12.20;80.60;;;;;;5017512;28;20197;-73
2023/04/05 10:28:11;;;;;;;3.63;1.40;;;12.30;81.00;;;;;;5019440;28;20790;-73
2023/04/05 10:30:51;;;;;;;5.15;2.00;;;12.30;81.90;;;;;;5018716;28;20054;-72
2023/04/05 10:33:34;;;;;;;;;;;12.40;81.30;;;;;;5018614;28;20096;-74
2023/04/05 10:36:00;;;;;;;6.32;2.58;;;12.40;80.50;;;;;;5018422;28;19928;-73
2023/04/05 10:38:27;;;;;;;3.67;1.70;;;12.40;81.60;;;;;;5018866;28;20030;-73
2023/04/05 10:41:09;;;;;;;9.30;2.58;;;12.30;80.30;;;;;;5019726;28;20176;-73
2023/04/05 10:43:37;;;;;;;4.07;1.75;;;12.20;78.60;;;;;;5014763;28;20037;-73
2023/04/05 10:46:06;;;;;;;3.97;1.63;;;12.20;79.10;;;;;;5017549;28;20041;-74
2023/04/05 10:48:50;;;;;;;4.80;1.70;;;12.20;80.50;;;;;;5016502;28;20144;-73
2023/04/05 10:51:16;;;;;;;3.20;1.65;;;12.20;79.40;;;;;;5018935;28;20045;-72
2023/04/05 10:53:43;;;;;;;5.30;1.95;;;12.20;80.60;;;;;;5016735;28;20087;-72
2023/04/05 10:56:08;;;;;;;7.07;1.77;;;12.20;81.00;;;;;;5018598;28;20045;-72
2023/04/05 10:58:36;;;;;;;10.48;2.10;;;12.10;79.90;;;;;;5019364;28;20131;-72
2023/04/05 11:01:03;;;;;;;7.68;1.85;;;12.10;78.00;;;;;;5017696;28;20033;-72
2023/04/05 11:03:45;;;;;;;3.08;1.48;;;12.00;77.60;;;;;;5018161;28;20021;-76
2023/04/05 11:06:28;;;;;;;6.30;2.17;;;11.90;78.30;;;;;;5015120;28;20124;-73
2023/04/05 11:09:14;;;;;;;4.93;2.08;;;12.00;78.90;;;;;;5017088;28;20087;-72
2023/04/05 11:11:45;;;;;;;5.50;1.98;;;11.90;77.90;;;;;;5006839;28;20556;-74
2023/04/05 11:14:35;;;;;;;5.15;1.58;;;12.00;80.20;;;;;;5020951;28;20071;-73
2023/04/05 11:17:02;;;;;;;6.72;1.70;;;12.00;79.80;;;;;;5019628;28;20037;-73
2023/04/05 11:19:46;;;;;;;6.00;1.95;;;11.90;80.60;;;;;;5019616;28;20107;-74
2023/04/05 11:22:12;;;;;;;7.95;2.90;;;11.80;79.80;;;;;;5020194;28;20049;-74
2023/04/05 11:24:57;;;;;;;5.45;1.52;;;11.80;79.50;;;;;;5020418;28;20037;-72
2023/04/05 11:27:32;;;;;;;5.78;2.40;;;11.80;80.10;;;;;;5018183;28;20048;-73
2023/04/05 11:30:01;;;;;;;5.72;1.80;;;11.80;81.50;;;;;;5021467;28;20025;-72
2023/04/05 11:32:43;;;;;;;5.57;2.15;;;11.90;82.00;;;;;;5021021;28;21476;-72
2023/04/05 11:35:21;;;;;;;6.10;1.92;;;12.00;81.60;;;;;;5019053;28;20152;-72
2023/04/05 11:37:59;;;;;;;4.60;2.00;;;12.00;81.90;;;;;;5020613;28;20128;-72
2023/04/05 11:40:33;;;;;;;4.60;1.90;;;12.00;79.90;;;;;;5020606;28;20037;-73
2023/04/05 11:43:08;;;;;;;5.63;1.83;;;12.00;79.50;;;;;;5018499;28;20103;-72
2023/04/05 11:45:36;;;;;;;2.70;1.83;;;12.00;81.30;;;;;;5016044;28;20030;-72
2023/04/05 11:48:13;;;;;;;8.23;2.47;;;12.00;79.90;;;;;;5019796;28;20037;-73
2023/04/05 11:50:44;;;;;;;4.03;2.03;;;12.00;80.80;;;;;;5020287;28;20120;-72
2023/04/05 11:53:14;;;;;;;7.07;2.10;;;11.90;81.00;;;;;;5020921;28;20045;-72
2023/04/05 11:55:45;;;;;;;4.35;2.00;;;11.80;80.20;;;;;;5017994;28;20045;-72
2023/04/05 11:58:20;;;;;;;4.90;2.15;;;11.90;82.80;;;;;;5023198;28;20033;-74
2023/04/05 12:00:55;;;;;;;5.05;1.90;;;11.80;81.30;;;;;;5021426;28;20061;-73
2023/04/05 12:03:21;;;;;;;5.78;2.20;;;11.90;82.20;;;;;;5016174;28;20037;-73
2023/04/05 12:05:50;;;;;;;4.65;2.47;;;11.90;82.20;;;;;;5020037;28;20040;-72
2023/04/05 12:08:17;;;;;;;6.65;2.60;;;12.00;82.60;;;;;;5021157;28;20087;-72
2023/04/05 12:10:42;;;;;;;5.43;1.85;;;12.10;82.00;;;;;;5020513;28;20145;-72
2023/04/05 12:13:08;;;;;;;5.95;2.40;;;12.20;80.90;;;;;;5019719;28;20741;-73
2023/04/05 12:15:38;;;;;;;7.10;2.30;;;12.10;81.80;;;;;;5020867;28;20048;-73
2023/04/05 12:18:06;;;;;;;4.93;2.22;;;12.20;82.00;;;;;;5021821;28;20040;-73
2023/04/05 12:20:32;;;;;;;4.65;2.10;;;12.20;80.90;;;;;;5019763;28;20034;-72
2023/04/05 12:22:58;;;;;;;4.40;2.00;;;12.10;80.10;;;;;;5019975;28;20091;-72
2023/04/05 12:25:24;;;;;;;11.23;2.67;;;12.00;80.20;;;;;;5019764;28;20031;-73
2023/04/05 12:27:49;;;;;;;5.18;1.92;;;12.00;81.00;;;;;;5018603;28;20103;-72
2023/04/05 12:30:20;;;;;;;7.35;2.20;;;11.90;81.10;;;;;;5019681;28;20029;-72
2023/04/05 12:32:53;;;;;;;5.88;2.85;;;11.80;82.50;;;;;;5018332;28;20382;-72
2023/04/05 12:35:23;;;;;;;9.02;2.55;;;11.90;82.40;;;;;;5016757;28;20041;-72
2023/04/05 12:37:50;;;;;;;6.85;2.38;;;11.90;82.10;;;;;;5020469;28;20051;-73
2023/04/05 12:40:20;;;;;;;7.50;2.10;;;11.90;82.30;;;;;;5019135;28;20154;-72
2023/04/05 12:42:46;;;;;;;;;;;11.90;81.10;;;;;;5019731;28;20433;-75
2023/04/05 12:45:13;;;;;;;4.88;1.92;;;11.90;78.90;;;;;;5017234;28;19928;-73
2023/04/05 12:47:52;;;;;;;7.40;2.30;;;11.80;78.50;;;;;;5019752;28;20033;-73
2023/04/05 12:50:25;;;;;;;6.65;2.42;;;11.70;78.60;;;;;;5021170;28;20717;-72
2023/04/05 12:52:57;;;;;;;6.38;2.65;;;11.60;80.40;;;;;;5019936;28;20040;-73
2023/04/05 12:55:24;;;;;;;5.28;2.40;;;11.60;81.30;;;;;;5018705;28;20088;-72
2023/04/05 12:57:54;;;;;;;5.97;2.50;;;11.50;82.40;;;;;;5020491;28;20037;-73
2023/04/05 13:00:25;;;;;;;9.60;2.75;;;11.60;83.40;;;;;;5019183;28;20029;-72